sensor_id;sensor_type;location;lat;lon;timestamp;P1;P2;P0
13030;PMS7003;6582;54.644;9.760;2022-12-29T00:00:02;77.4;64.6;
13030;PMS7003;6582;54.644;9.760;2022-12-29T00:05:01;77.1;64.0;
13030;PMS7003;6582;54.644;9.760;2022-12-29T00:10:07;75.6;63.0;
13030;PMS7003;6582;54.644;9.760;2022-12-29T00:15:01;72.7;60.9;
13030;PMS7003;6582;54.644;9.760;2022-12-29T00:20:02;70.8;59.5;
13030;PMS7003;6582;54.644;9.760;2022-12-29T00:25:01;72.8;61.1;
13030;PMS7003;6582;54.644;9.760;2022-12-29T00:30:01;71.1;60.1;
13030;PMS7003;6582;54.644;9.760;2022-12-29T00:35:08;71.2;60.2;
13030;PMS7003;6582;54.644;9.760;2022-12-29T00:40:01;71.3;60.2;
13030;PMS7003;6582;54.644;9.760;2022-12-29T00:45:01;70.8;59.8;
13030;PMS7003;6582;54.644;9.760;2022-12-29T00:50:02;65.2;55.7;
13030;PMS7003;6582;54.644;9.760;2022-12-29T00:55:01;66.9;57.1;
13030;PMS7003;6582;54.644;9.760;2022-12-29T01:00:01;68.6;58.1;
13030;PMS7003;6582;54.644;9.760;2022-12-29T01:05:02;72.4;60.9;
13030;PMS7003;6582;54.644;9.760;2022-12-29T01:10:01;78.2;65.7;
13030;PMS7003;6582;54.644;9.760;2022-12-29T01:15:01;79.6;66.6;
13030;PMS7003;6582;54.644;9.760;2022-12-29T01:20:02;78.5;65.7;
13030;PMS7003;6582;54.644;9.760;2022-12-29T01:25:07;76.9;64.8;
13030;PMS7003;6582;54.644;9.760;2022-12-29T01:30:01;72.5;61.5;
13030;PMS7003;6582;54.644;9.760;2022-12-29T01:35:02;66.3;56.1;
13030;PMS7003;6582;54.644;9.760;2022-12-29T01:40:07;64.5;54.9;
13030;PMS7003;6582;54.644;9.760;2022-12-29T01:45:09;62.3;53.4;
13030;PMS7003;6582;54.644;9.760;2022-12-29T01:50:03;61.4;52.7;
13030;PMS7003;6582;54.644;9.760;2022-12-29T01:55:01;62.9;53.8;
13030;PMS7003;6582;54.644;9.760;2022-12-29T02:00:04;62.2;53.2;
13030;PMS7003;6582;54.644;9.760;2022-12-29T02:05:11;63.7;54.4;
13030;PMS7003;6582;54.644;9.760;2022-12-29T02:10:01;68.1;57.5;
13030;PMS7003;6582;54.644;9.760;2022-12-29T02:15:02;68.0;57.3;
13030;PMS7003;6582;54.644;9.760;2022-12-29T02:20:14;66.8;56.4;
13030;PMS7003;6582;54.644;9.760;2022-12-29T02:40:05;62.4;53.4;
13030;PMS7003;6582;54.644;9.760;2022-12-29T02:45:07;66.3;56.2;
13030;PMS7003;6582;54.644;9.760;2022-12-29T02:50:06;66.8;56.7;
13030;PMS7003;6582;54.644;9.760;2022-12-29T02:55:07;69.1;58.4;
13030;PMS7003;6582;54.644;9.760;2022-12-29T03:00:06;67.8;57.5;
13030;PMS7003;6582;54.644;9.760;2022-12-29T03:05:13;73.1;61.9;
13030;PMS7003;6582;54.644;9.760;2022-12-29T03:30:02;71.0;58.8;
13030;PMS7003;6582;54.644;9.760;2022-12-29T03:35:02;70.3;58.9;
13030;PMS7003;6582;54.644;9.760;2022-12-29T03:45:01;71.4;59.3;
13030;PMS7003;6582;54.644;9.760;2022-12-29T03:50:01;80.0;68.7;
13030;PMS7003;6582;54.644;9.760;2022-12-29T03:55:01;83.2;72.3;
13030;PMS7003;6582;54.644;9.760;2022-12-29T04:05:01;88.2;77.7;
13030;PMS7003;6582;54.644;9.760;2022-12-29T04:10:02;92.2;81.2;
13030;PMS7003;6582;54.644;9.760;2022-12-29T04:15:07;96.0;84.3;
13030;PMS7003;6582;54.644;9.760;2022-12-29T04:20:02;92.6;80.0;
13030;PMS7003;6582;54.644;9.760;2022-12-29T04:25:01;92.4;78.8;
13030;PMS7003;6582;54.644;9.760;2022-12-29T04:30:02;92.0;77.9;
13030;PMS7003;6582;54.644;9.760;2022-12-29T04:35:02;103.6;90.6;
13030;PMS7003;6582;54.644;9.760;2022-12-29T04:40:01;104.7;92.6;
13030;PMS7003;6582;54.644;9.760;2022-12-29T04:45:03;106.6;95.0;
13030;PMS7003;6582;54.644;9.760;2022-12-29T04:50:03;107.8;98.0;
13030;PMS7003;6582;54.644;9.760;2022-12-29T04:55:02;109.7;101.3;
13030;PMS7003;6582;54.644;9.760;2022-12-29T05:05:01;101.2;93.5;
13030;PMS7003;6582;54.644;9.760;2022-12-29T05:10:02;103.0;97.3;
13030;PMS7003;6582;54.644;9.760;2022-12-29T05:15:02;102.0;95.3;
13030;PMS7003;6582;54.644;9.760;2022-12-29T05:20:06;99.2;91.0;
13030;PMS7003;6582;54.644;9.760;2022-12-29T05:25:02;97.2;87.9;
13030;PMS7003;6582;54.644;9.760;2022-12-29T05:30:02;95.2;84.3;
13030;PMS7003;6582;54.644;9.760;2022-12-29T05:35:02;94.3;83.0;
13030;PMS7003;6582;54.644;9.760;2022-12-29T05:40:02;94.2;83.9;
13030;PMS7003;6582;54.644;9.760;2022-12-29T05:45:02;108.8;100.7;
13030;PMS7003;6582;54.644;9.760;2022-12-29T05:50:02;108.5;99.9;
13030;PMS7003;6582;54.644;9.760;2022-12-29T06:00:03;108.0;99.4;
13030;PMS7003;6582;54.644;9.760;2022-12-29T06:05:03;110.8;104.0;
13030;PMS7003;6582;54.644;9.760;2022-12-29T06:10:07;101.4;94.7;
13030;PMS7003;6582;54.644;9.760;2022-12-29T06:15:02;100.6;93.9;
13030;PMS7003;6582;54.644;9.760;2022-12-29T06:20:02;98.2;90.0;
13030;PMS7003;6582;54.644;9.760;2022-12-29T06:25:06;95.3;85.9;
13030;PMS7003;6582;54.644;9.760;2022-12-29T06:30:02;109.2;100.2;
13030;PMS7003;6582;54.644;9.760;2022-12-29T06:35:02;103.4;91.5;
13030;PMS7003;6582;54.644;9.760;2022-12-29T06:40:01;103.1;91.3;
13030;PMS7003;6582;54.644;9.760;2022-12-29T06:50:02;106.6;96.8;
13030;PMS7003;6582;54.644;9.760;2022-12-29T06:55:01;109.9;101.6;
13030;PMS7003;6582;54.644;9.760;2022-12-29T07:00:03;94.4;85.0;
13030;PMS7003;6582;54.644;9.760;2022-12-29T07:05:02;97.3;89.4;
13030;PMS7003;6582;54.644;9.760;2022-12-29T07:10:03;103.3;98.0;
13030;PMS7003;6582;54.644;9.760;2022-12-29T07:15:02;102.6;96.8;
13030;PMS7003;6582;54.644;9.760;2022-12-29T07:20:03;100.6;94.2;
13030;PMS7003;6582;54.644;9.760;2022-12-29T07:25:02;99.4;91.7;
13030;PMS7003;6582;54.644;9.760;2022-12-29T07:35:07;98.0;89.3;
13030;PMS7003;6582;54.644;9.760;2022-12-29T07:40:02;93.3;81.5;
13030;PMS7003;6582;54.644;9.760;2022-12-29T07:45:02;92.9;79.8;
13030;PMS7003;6582;54.644;9.760;2022-12-29T07:50:07;93.0;79.0;
13030;PMS7003;6582;54.644;9.760;2022-12-29T07:55:03;91.8;77.0;
13030;PMS7003;6582;54.644;9.760;2022-12-29T08:00:08;91.2;76.0;
13030;PMS7003;6582;54.644;9.760;2022-12-29T08:15:01;91.3;78.0;
13030;PMS7003;6582;54.644;9.760;2022-12-29T08:20:02;91.2;78.0;
13030;PMS7003;6582;54.644;9.760;2022-12-29T08:25:08;93.6;82.1;
13030;PMS7003;6582;54.644;9.760;2022-12-29T08:30:07;92.5;80.6;
13030;PMS7003;6582;54.644;9.760;2022-12-29T08:35:01;90.8;78.2;
13030;PMS7003;6582;54.644;9.760;2022-12-29T08:40:02;88.8;74.8;
13030;PMS7003;6582;54.644;9.760;2022-12-29T08:45:02;88.4;74.9;
13030;PMS7003;6582;54.644;9.760;2022-12-29T08:50:02;85.8;70.8;
13030;PMS7003;6582;54.644;9.760;2022-12-29T08:55:01;88.5;74.8;
13030;PMS7003;6582;54.644;9.760;2022-12-29T09:05:02;93.8;83.0;
13030;PMS7003;6582;54.644;9.760;2022-12-29T09:10:05;123.4;115.8;
13030;PMS7003;6582;54.644;9.760;2022-12-29T09:15:02;127.7;121.9;
13030;PMS7003;6582;54.644;9.760;2022-12-29T09:20:07;137.5;134.8;
13030;PMS7003;6582;54.644;9.760;2022-12-29T09:25:02;149.3;148.6;
13030;PMS7003;6582;54.644;9.760;2022-12-29T09:30:04;157.6;157.0;
13030;PMS7003;6582;54.644;9.760;2022-12-29T09:35:07;131.9;131.2;
13030;PMS7003;6582;54.644;9.760;2022-12-29T09:40:02;137.5;136.2;
13030;PMS7003;6582;54.644;9.760;2022-12-29T09:45:13;132.1;130.0;
13030;PMS7003;6582;54.644;9.760;2022-12-29T09:50:04;123.1;120.7;
13030;PMS7003;6582;54.644;9.760;2022-12-29T09:55:16;114.4;111.3;
13030;PMS7003;6582;54.644;9.760;2022-12-29T11:00:15;106.2;104.2;
13030;PMS7003;6582;54.644;9.760;2022-12-29T11:05:06;168.3;167.3;
13030;PMS7003;6582;54.644;9.760;2022-12-29T11:10:16;154.9;153.4;
13030;PMS7003;6582;54.644;9.760;2022-12-29T11:15:13;149.4;148.0;
13030;PMS7003;6582;54.644;9.760;2022-12-29T11:20:18;147.3;146.0;
13030;PMS7003;6582;54.644;9.760;2022-12-29T11:40:05;182.2;181.0;
13030;PMS7003;6582;54.644;9.760;2022-12-29T11:45:15;171.6;170.8;
13030;PMS7003;6582;54.644;9.760;2022-12-29T11:50:06;236.9;236.3;
13030;PMS7003;6582;54.644;9.760;2022-12-29T11:55:02;208.1;206.5;
13030;PMS7003;6582;54.644;9.760;2022-12-29T12:00:06;192.1;188.7;
13030;PMS7003;6582;54.644;9.760;2022-12-29T12:05:06;180.8;176.8;
13030;PMS7003;6582;54.644;9.760;2022-12-29T12:10:15;175.4;170.5;
13030;PMS7003;6582;54.644;9.760;2022-12-29T12:15:08;125.7;120.1;
13030;PMS7003;6582;54.644;9.760;2022-12-29T13:00:08;89.8;75.8;
13030;PMS7003;6582;54.644;9.760;2022-12-29T13:20:06;99.6;87.0;
13030;PMS7003;6582;54.644;9.760;2022-12-29T13:40:15;129.6;127.6;
13030;PMS7003;6582;54.644;9.760;2022-12-29T13:45:05;144.9;142.8;
13030;PMS7003;6582;54.644;9.760;2022-12-29T13:50:02;149.2;147.7;
13030;PMS7003;6582;54.644;9.760;2022-12-29T14:10:03;149.8;147.0;
13030;PMS7003;6582;54.644;9.760;2022-12-29T14:15:05;150.0;148.6;
13030;PMS7003;6582;54.644;9.760;2022-12-29T14:20:02;135.4;133.7;
13030;PMS7003;6582;54.644;9.760;2022-12-29T14:25:55;124.7;120.0;
13030;PMS7003;6582;54.644;9.760;2022-12-29T14:40:05;93.6;83.4;
13030;PMS7003;6582;54.644;9.760;2022-12-29T14:45:04;94.4;84.9;
13030;PMS7003;6582;54.644;9.760;2022-12-29T14:50:15;94.9;84.8;
13030;PMS7003;6582;54.644;9.760;2022-12-29T14:55:28;95.2;84.7;
13030;PMS7003;6582;54.644;9.760;2022-12-29T15:10:08;107.0;102.4;
13030;PMS7003;6582;54.644;9.760;2022-12-29T15:15:02;97.0;86.8;
13030;PMS7003;6582;54.644;9.760;2022-12-29T15:40:02;88.0;73.2;
13030;PMS7003;6582;54.644;9.760;2022-12-29T15:45:12;91.5;79.4;
13030;PMS7003;6582;54.644;9.760;2022-12-29T15:50:20;100.6;91.9;
13030;PMS7003;6582;54.644;9.760;2022-12-29T16:10:32;113.8;111.6;
13030;PMS7003;6582;54.644;9.760;2022-12-29T16:30:05;296.6;296.6;
13030;PMS7003;6582;54.644;9.760;2022-12-29T16:35:07;308.2;308.2;
13030;PMS7003;6582;54.644;9.760;2022-12-29T17:00:04;121.2;121.2;
13030;PMS7003;6582;54.644;9.760;2022-12-29T17:05:07;128.5;128.5;
13030;PMS7003;6582;54.644;9.760;2022-12-29T17:10:02;180.9;180.9;
13030;PMS7003;6582;54.644;9.760;2022-12-29T17:15:10;180.4;180.4;
13030;PMS7003;6582;54.644;9.760;2022-12-29T17:20:05;175.4;174.8;
13030;PMS7003;6582;54.644;9.760;2022-12-29T17:25:01;196.2;195.6;
13030;PMS7003;6582;54.644;9.760;2022-12-29T17:30:04;194.2;193.5;
13030;PMS7003;6582;54.644;9.760;2022-12-29T17:35:02;170.4;169.4;
13030;PMS7003;6582;54.644;9.760;2022-12-29T17:40:02;180.3;179.2;
13030;PMS7003;6582;54.644;9.760;2022-12-29T17:45:03;201.7;201.0;
13030;PMS7003;6582;54.644;9.760;2022-12-29T17:50:01;196.2;195.0;
13030;PMS7003;6582;54.644;9.760;2022-12-29T17:55:01;204.5;203.2;
13030;PMS7003;6582;54.644;9.760;2022-12-29T18:00:01;215.6;214.6;
13030;PMS7003;6582;54.644;9.760;2022-12-29T18:05:01;222.4;221.4;
13030;PMS7003;6582;54.644;9.760;2022-12-29T18:10:01;194.0;193.2;
13030;PMS7003;6582;54.644;9.760;2022-12-29T18:15:15;178.0;177.6;
13030;PMS7003;6582;54.644;9.760;2022-12-29T18:20:01;176.4;176.2;
13030;PMS7003;6582;54.644;9.760;2022-12-29T18:25:01;172.4;172.2;
13030;PMS7003;6582;54.644;9.760;2022-12-29T18:30:01;157.5;157.1;
13030;PMS7003;6582;54.644;9.760;2022-12-29T18:35:01;188.4;187.5;
13030;PMS7003;6582;54.644;9.760;2022-12-29T18:40:02;222.4;221.6;
13030;PMS7003;6582;54.644;9.760;2022-12-29T18:45:01;261.8;261.0;
13030;PMS7003;6582;54.644;9.760;2022-12-29T18:50:01;264.4;263.6;
13030;PMS7003;6582;54.644;9.760;2022-12-29T18:55:12;255.4;254.6;
13030;PMS7003;6582;54.644;9.760;2022-12-29T19:00:01;232.8;232.4;
13030;PMS7003;6582;54.644;9.760;2022-12-29T19:05:17;224.9;224.6;
13030;PMS7003;6582;54.644;9.760;2022-12-29T19:10:02;199.3;199.0;
13030;PMS7003;6582;54.644;9.760;2022-12-29T19:15:02;216.6;216.3;
13030;PMS7003;6582;54.644;9.760;2022-12-29T19:20:01;248.6;248.4;
13030;PMS7003;6582;54.644;9.760;2022-12-29T19:25:01;274.9;274.8;
13030;PMS7003;6582;54.644;9.760;2022-12-29T19:30:02;252.1;251.7;
13030;PMS7003;6582;54.644;9.760;2022-12-29T19:35:01;235.5;235.0;
13030;PMS7003;6582;54.644;9.760;2022-12-29T19:40:02;218.5;217.6;
13030;PMS7003;6582;54.644;9.760;2022-12-29T19:45:06;194.7;193.8;
13030;PMS7003;6582;54.644;9.760;2022-12-29T19:50:02;218.0;217.2;
13030;PMS7003;6582;54.644;9.760;2022-12-29T19:55:01;247.6;247.1;
13030;PMS7003;6582;54.644;9.760;2022-12-29T20:00:01;269.3;268.9;
13030;PMS7003;6582;54.644;9.760;2022-12-29T20:05:01;293.6;293.6;
13030;PMS7003;6582;54.644;9.760;2022-12-29T20:10:06;293.7;293.7;
13030;PMS7003;6582;54.644;9.760;2022-12-29T20:15:08;257.6;257.6;
13030;PMS7003;6582;54.644;9.760;2022-12-29T20:20:01;238.6;238.5;
13030;PMS7003;6582;54.644;9.760;2022-12-29T20:25:15;241.3;240.9;
13030;PMS7003;6582;54.644;9.760;2022-12-29T20:30:07;232.6;232.2;
13030;PMS7003;6582;54.644;9.760;2022-12-29T20:35:01;299.0;298.4;
13030;PMS7003;6582;54.644;9.760;2022-12-29T20:40:01;286.4;285.8;
13030;PMS7003;6582;54.644;9.760;2022-12-29T20:45:07;295.0;294.4;
13030;PMS7003;6582;54.644;9.760;2022-12-29T20:50:02;296.0;295.8;
13030;PMS7003;6582;54.644;9.760;2022-12-29T20:55:01;299.7;299.1;
13030;PMS7003;6582;54.644;9.760;2022-12-29T21:00:01;286.7;286.0;
13030;PMS7003;6582;54.644;9.760;2022-12-29T21:05:20;315.4;314.8;
13030;PMS7003;6582;54.644;9.760;2022-12-29T21:30:07;325.8;325.0;
13030;PMS7003;6582;54.644;9.760;2022-12-29T21:35:02;322.1;321.7;
13030;PMS7003;6582;54.644;9.760;2022-12-29T21:40:02;328.5;328.0;
13030;PMS7003;6582;54.644;9.760;2022-12-29T21:45:08;306.8;306.4;
13030;PMS7003;6582;54.644;9.760;2022-12-29T21:50:02;307.3;306.9;
13030;PMS7003;6582;54.644;9.760;2022-12-29T21:55:03;310.8;310.6;
13030;PMS7003;6582;54.644;9.760;2022-12-29T22:00:04;331.0;330.8;
13030;PMS7003;6582;54.644;9.760;2022-12-29T22:05:03;348.4;348.4;
13030;PMS7003;6582;54.644;9.760;2022-12-29T22:10:02;359.6;359.5;
13030;PMS7003;6582;54.644;9.760;2022-12-29T22:15:02;355.0;355.0;
13030;PMS7003;6582;54.644;9.760;2022-12-29T22:20:02;368.2;367.9;
13030;PMS7003;6582;54.644;9.760;2022-12-29T22:25:02;371.0;370.8;
13030;PMS7003;6582;54.644;9.760;2022-12-29T22:30:02;388.4;388.2;
13030;PMS7003;6582;54.644;9.760;2022-12-29T22:35:09;422.1;421.8;
13030;PMS7003;6582;54.644;9.760;2022-12-29T22:40:02;433.4;433.1;
13030;PMS7003;6582;54.644;9.760;2022-12-29T22:45:02;406.4;406.4;
13030;PMS7003;6582;54.644;9.760;2022-12-29T22:50:11;361.2;361.0;
13030;PMS7003;6582;54.644;9.760;2022-12-29T22:55:08;305.0;304.8;
13030;PMS7003;6582;54.644;9.760;2022-12-29T23:00:03;263.3;263.1;
13030;PMS7003;6582;54.644;9.760;2022-12-29T23:05:07;258.3;258.1;
13030;PMS7003;6582;54.644;9.760;2022-12-29T23:10:02;252.4;251.9;
13030;PMS7003;6582;54.644;9.760;2022-12-29T23:15:03;252.6;252.1;
13030;PMS7003;6582;54.644;9.760;2022-12-29T23:20:06;255.2;254.8;
13030;PMS7003;6582;54.644;9.760;2022-12-29T23:25:02;248.8;248.4;
13030;PMS7003;6582;54.644;9.760;2022-12-29T23:30:02;237.2;236.7;
13030;PMS7003;6582;54.644;9.760;2022-12-29T23:35:02;226.7;226.5;
13030;PMS7003;6582;54.644;9.760;2022-12-29T23:40:02;234.3;234.3;
13030;PMS7003;6582;54.644;9.760;2022-12-29T23:45:03;226.1;226.1;
13030;PMS7003;6582;54.644;9.760;2022-12-29T23:50:02;238.6;238.4;
13030;PMS7003;6582;54.644;9.760;2022-12-29T23:55:07;246.7;246.5;
